Terminal Aerodrome Forecast
Issued by NWS

Home | Current Version | Previous Version | Text Only | Print | Product List | Glossary On
Versions: 1 2 3 4 5 6 7 8 9 10 11 12 13 14 15 16 17
000
FTUS43 KGRB 271137
TAFMTW
TAF
KMTW 271137Z 2712/2812 VRB03KT 6SM BR SCT002
      TEMPO 2712/2713 5SM BR
     FM271400 19005KT P6SM SCT015 SCT100
     FM271700 16010KT P6SM SCT030 SCT080
     FM272200 17007KT P6SM VCSH SCT035 BKN080
     FM280200 VRB03KT P6SM SCT035 BKN080 PROB30 2806/2812 3SM -SHRA
      BKN035=

USA.gov is the U.S. government's official web portal to all federal, state and local government web resources and services.